sensor_id;sensor_type;location;lat;lon;timestamp;temperature;humidity
7216;DHT22;3649;48.798;9.798;2022-07-11T00:01:48;20.30;97.70
7216;DHT22;3649;48.798;9.798;2022-07-11T00:04:15;20.30;97.60
7216;DHT22;3649;48.798;9.798;2022-07-11T00:06:42;20.20;97.70
7216;DHT22;3649;48.798;9.798;2022-07-11T00:09:09;20.30;97.70
7216;DHT22;3649;48.798;9.798;2022-07-11T00:11:36;20.20;97.80
7216;DHT22;3649;48.798;9.798;2022-07-11T00:14:03;20.30;97.80
7216;DHT22;3649;48.798;9.798;2022-07-11T00:16:30;20.30;97.80
7216;DHT22;3649;48.798;9.798;2022-07-11T00:18:57;20.30;97.80
7216;DHT22;3649;48.798;9.798;2022-07-11T00:21:24;20.20;97.80
7216;DHT22;3649;48.798;9.798;2022-07-11T00:23:51;20.20;97.80
7216;DHT22;3649;48.798;9.798;2022-07-11T00:26:18;20.20;97.90
7216;DHT22;3649;48.798;9.798;2022-07-11T00:28:44;20.20;97.90
7216;DHT22;3649;48.798;9.798;2022-07-11T00:31:11;20.20;97.90
7216;DHT22;3649;48.798;9.798;2022-07-11T00:33:38;20.20;97.90
7216;DHT22;3649;48.798;9.798;2022-07-11T00:36:06;20.20;97.90
7216;DHT22;3649;48.798;9.798;2022-07-11T00:38:33;20.20;97.80
7216;DHT22;3649;48.798;9.798;2022-07-11T00:41:00;20.20;97.90
7216;DHT22;3649;48.798;9.798;2022-07-11T00:43:37;20.10;97.90
7216;DHT22;3649;48.798;9.798;2022-07-11T00:46:06;20.10;97.80
7216;DHT22;3649;48.798;9.798;2022-07-11T00:48:35;20.20;97.80
7216;DHT22;3649;48.798;9.798;2022-07-11T00:51:03;20.30;97.80
7216;DHT22;3649;48.798;9.798;2022-07-11T00:53:31;20.20;97.80
7216;DHT22;3649;48.798;9.798;2022-07-11T00:55:59;20.10;97.80
7216;DHT22;3649;48.798;9.798;2022-07-11T00:58:27;20.10;97.80
7216;DHT22;3649;48.798;9.798;2022-07-11T01:00:54;20.10;97.80
7216;DHT22;3649;48.798;9.798;2022-07-11T01:03:23;20.10;97.80
7216;DHT22;3649;48.798;9.798;2022-07-11T01:05:50;20.10;97.80
7216;DHT22;3649;48.798;9.798;2022-07-11T01:08:17;20.10;97.90
7216;DHT22;3649;48.798;9.798;2022-07-11T01:10:44;20.10;98.00
7216;DHT22;3649;48.798;9.798;2022-07-11T01:13:11;20.20;97.90
7216;DHT22;3649;48.798;9.798;2022-07-11T01:15:38;20.20;97.90
7216;DHT22;3649;48.798;9.798;2022-07-11T01:18:05;20.30;97.90
7216;DHT22;3649;48.798;9.798;2022-07-11T01:20:32;20.30;98.20
7216;DHT22;3649;48.798;9.798;2022-07-11T01:23:08;20.20;98.00
7216;DHT22;3649;48.798;9.798;2022-07-11T01:25:35;20.20;98.00
7216;DHT22;3649;48.798;9.798;2022-07-11T01:28:04;20.10;98.00
7216;DHT22;3649;48.798;9.798;2022-07-11T01:30:33;20.10;98.20
7216;DHT22;3649;48.798;9.798;2022-07-11T01:33:00;20.10;98.20
7216;DHT22;3649;48.798;9.798;2022-07-11T01:35:28;20.00;98.30
7216;DHT22;3649;48.798;9.798;2022-07-11T01:37:55;20.00;98.30
7216;DHT22;3649;48.798;9.798;2022-07-11T01:40:28;20.00;98.40
7216;DHT22;3649;48.798;9.798;2022-07-11T01:42:55;20.00;98.40
7216;DHT22;3649;48.798;9.798;2022-07-11T01:45:21;20.00;98.50
7216;DHT22;3649;48.798;9.798;2022-07-11T01:47:48;20.10;98.60
7216;DHT22;3649;48.798;9.798;2022-07-11T01:50:15;20.00;98.60
7216;DHT22;3649;48.798;9.798;2022-07-11T01:52:42;19.90;98.70
7216;DHT22;3649;48.798;9.798;2022-07-11T01:55:09;19.90;98.80
7216;DHT22;3649;48.798;9.798;2022-07-11T01:57:37;19.90;98.80
7216;DHT22;3649;48.798;9.798;2022-07-11T02:00:05;20.00;98.90
7216;DHT22;3649;48.798;9.798;2022-07-11T02:02:35;20.00;98.80
7216;DHT22;3649;48.798;9.798;2022-07-11T02:05:03;20.00;99.00
7216;DHT22;3649;48.798;9.798;2022-07-11T02:07:29;20.00;99.10
7216;DHT22;3649;48.798;9.798;2022-07-11T02:10:15;19.90;99.10
7216;DHT22;3649;48.798;9.798;2022-07-11T02:12:42;19.90;99.10
7216;DHT22;3649;48.798;9.798;2022-07-11T02:15:09;19.90;99.20
7216;DHT22;3649;48.798;9.798;2022-07-11T02:17:36;20.00;99.10
7216;DHT22;3649;48.798;9.798;2022-07-11T02:20:03;19.90;99.10
7216;DHT22;3649;48.798;9.798;2022-07-11T02:22:30;19.80;99.10
7216;DHT22;3649;48.798;9.798;2022-07-11T02:24:57;19.80;99.20
7216;DHT22;3649;48.798;9.798;2022-07-11T02:27:23;19.80;99.20
7216;DHT22;3649;48.798;9.798;2022-07-11T02:29:50;19.80;99.20
7216;DHT22;3649;48.798;9.798;2022-07-11T02:32:18;19.80;99.10
7216;DHT22;3649;48.798;9.798;2022-07-11T02:34:44;20.00;99.10
7216;DHT22;3649;48.798;9.798;2022-07-11T02:37:11;20.00;98.90
7216;DHT22;3649;48.798;9.798;2022-07-11T02:39:38;19.90;98.90
7216;DHT22;3649;48.798;9.798;2022-07-11T02:42:05;19.90;98.90
7216;DHT22;3649;48.798;9.798;2022-07-11T02:44:32;19.90;99.00
7216;DHT22;3649;48.798;9.798;2022-07-11T02:46:59;19.80;99.10
7216;DHT22;3649;48.798;9.798;2022-07-11T02:49:26;19.90;98.90
7216;DHT22;3649;48.798;9.798;2022-07-11T02:51:52;19.90;98.80
7216;DHT22;3649;48.798;9.798;2022-07-11T02:54:19;19.90;98.80
7216;DHT22;3649;48.798;9.798;2022-07-11T02:56:46;19.90;99.00
7216;DHT22;3649;48.798;9.798;2022-07-11T02:59:13;19.80;99.00
7216;DHT22;3649;48.798;9.798;2022-07-11T03:01:40;19.90;98.90
7216;DHT22;3649;48.798;9.798;2022-07-11T03:04:09;19.80;99.00
7216;DHT22;3649;48.798;9.798;2022-07-11T03:06:36;19.90;99.00
7216;DHT22;3649;48.798;9.798;2022-07-11T03:09:06;19.80;99.00
7216;DHT22;3649;48.798;9.798;2022-07-11T03:11:33;19.80;99.10
7216;DHT22;3649;48.798;9.798;2022-07-11T03:14:00;19.70;99.10
7216;DHT22;3649;48.798;9.798;2022-07-11T03:16:28;19.90;99.10
7216;DHT22;3649;48.798;9.798;2022-07-11T03:18:56;19.90;99.00
7216;DHT22;3649;48.798;9.798;2022-07-11T03:21:24;19.90;99.00
7216;DHT22;3649;48.798;9.798;2022-07-11T03:23:51;19.90;99.00
7216;DHT22;3649;48.798;9.798;2022-07-11T03:26:18;19.90;99.00
7216;DHT22;3649;48.798;9.798;2022-07-11T03:28:45;19.90;99.00
7216;DHT22;3649;48.798;9.798;2022-07-11T03:31:12;19.90;99.00
7216;DHT22;3649;48.798;9.798;2022-07-11T03:33:40;19.90;99.00
7216;DHT22;3649;48.798;9.798;2022-07-11T03:36:07;19.90;99.10
7216;DHT22;3649;48.798;9.798;2022-07-11T03:38:34;19.80;99.20
7216;DHT22;3649;48.798;9.798;2022-07-11T03:41:01;19.80;99.10
7216;DHT22;3649;48.798;9.798;2022-07-11T03:43:28;19.80;99.20
7216;DHT22;3649;48.798;9.798;2022-07-11T03:45:55;19.80;99.20
7216;DHT22;3649;48.798;9.798;2022-07-11T03:48:22;19.80;99.10
7216;DHT22;3649;48.798;9.798;2022-07-11T03:50:49;19.80;99.10
7216;DHT22;3649;48.798;9.798;2022-07-11T03:53:17;19.90;99.00
7216;DHT22;3649;48.798;9.798;2022-07-11T03:55:44;19.90;99.00
7216;DHT22;3649;48.798;9.798;2022-07-11T03:58:11;19.80;99.00
7216;DHT22;3649;48.798;9.798;2022-07-11T04:00:38;19.80;99.00
7216;DHT22;3649;48.798;9.798;2022-07-11T04:03:05;19.80;98.90
7216;DHT22;3649;48.798;9.798;2022-07-11T04:05:32;19.70;98.90
7216;DHT22;3649;48.798;9.798;2022-07-11T04:07:59;19.80;98.80
7216;DHT22;3649;48.798;9.798;2022-07-11T04:10:26;19.80;98.80
7216;DHT22;3649;48.798;9.798;2022-07-11T04:12:52;19.80;98.70
7216;DHT22;3649;48.798;9.798;2022-07-11T04:15:19;19.90;98.60
7216;DHT22;3649;48.798;9.798;2022-07-11T04:17:46;19.90;98.60
7216;DHT22;3649;48.798;9.798;2022-07-11T04:20:13;19.90;98.60
7216;DHT22;3649;48.798;9.798;2022-07-11T04:22:40;19.80;98.60
7216;DHT22;3649;48.798;9.798;2022-07-11T04:25:08;19.80;98.70
7216;DHT22;3649;48.798;9.798;2022-07-11T04:27:34;19.90;98.80
7216;DHT22;3649;48.798;9.798;2022-07-11T04:30:07;19.80;98.80
7216;DHT22;3649;48.798;9.798;2022-07-11T04:32:34;19.80;98.90
7216;DHT22;3649;48.798;9.798;2022-07-11T04:35:03;19.80;98.90
7216;DHT22;3649;48.798;9.798;2022-07-11T04:37:30;19.70;99.00
7216;DHT22;3649;48.798;9.798;2022-07-11T04:39:57;19.70;99.00
7216;DHT22;3649;48.798;9.798;2022-07-11T04:42:24;19.80;99.00
7216;DHT22;3649;48.798;9.798;2022-07-11T04:44:51;19.90;98.90
7216;DHT22;3649;48.798;9.798;2022-07-11T04:47:17;19.90;98.80
7216;DHT22;3649;48.798;9.798;2022-07-11T04:49:45;19.80;98.90
7216;DHT22;3649;48.798;9.798;2022-07-11T04:52:14;19.80;99.00
7216;DHT22;3649;48.798;9.798;2022-07-11T04:54:40;19.80;98.90
7216;DHT22;3649;48.798;9.798;2022-07-11T04:57:07;19.90;98.80
7216;DHT22;3649;48.798;9.798;2022-07-11T04:59:34;19.90;98.80
7216;DHT22;3649;48.798;9.798;2022-07-11T05:02:01;19.90;98.90
7216;DHT22;3649;48.798;9.798;2022-07-11T05:04:28;19.90;98.90
7216;DHT22;3649;48.798;9.798;2022-07-11T05:06:55;20.00;98.80
7216;DHT22;3649;48.798;9.798;2022-07-11T05:09:22;20.00;98.80
7216;DHT22;3649;48.798;9.798;2022-07-11T05:11:49;20.00;98.80
7216;DHT22;3649;48.798;9.798;2022-07-11T05:14:16;20.00;98.90
7216;DHT22;3649;48.798;9.798;2022-07-11T05:16:43;20.00;98.90
7216;DHT22;3649;48.798;9.798;2022-07-11T05:19:10;20.00;98.90
7216;DHT22;3649;48.798;9.798;2022-07-11T05:21:37;20.10;98.80
7216;DHT22;3649;48.798;9.798;2022-07-11T05:24:04;20.10;98.90
7216;DHT22;3649;48.798;9.798;2022-07-11T05:26:31;20.10;98.90
7216;DHT22;3649;48.798;9.798;2022-07-11T05:28:58;20.20;98.80
7216;DHT22;3649;48.798;9.798;2022-07-11T05:31:25;20.30;98.70
7216;DHT22;3649;48.798;9.798;2022-07-11T05:33:52;20.20;98.80
7216;DHT22;3649;48.798;9.798;2022-07-11T05:36:19;20.20;98.90
7216;DHT22;3649;48.798;9.798;2022-07-11T05:38:46;20.20;98.90
7216;DHT22;3649;48.798;9.798;2022-07-11T05:41:13;20.30;98.80
7216;DHT22;3649;48.798;9.798;2022-07-11T05:43:40;20.40;98.80
7216;DHT22;3649;48.798;9.798;2022-07-11T05:46:07;20.40;98.80
7216;DHT22;3649;48.798;9.798;2022-07-11T05:48:34;20.40;99.00
7216;DHT22;3649;48.798;9.798;2022-07-11T05:51:01;20.30;99.10
7216;DHT22;3649;48.798;9.798;2022-07-11T05:53:27;20.50;99.00
7216;DHT22;3649;48.798;9.798;2022-07-11T05:55:54;20.50;99.00
7216;DHT22;3649;48.798;9.798;2022-07-11T05:58:21;20.60;99.10
7216;DHT22;3649;48.798;9.798;2022-07-11T06:00:48;20.60;99.10
7216;DHT22;3649;48.798;9.798;2022-07-11T06:03:15;20.50;99.30
7216;DHT22;3649;48.798;9.798;2022-07-11T06:05:42;20.50;99.50
7216;DHT22;3649;48.798;9.798;2022-07-11T06:08:09;20.50;99.50
7216;DHT22;3649;48.798;9.798;2022-07-11T06:10:55;20.50;99.50
7216;DHT22;3649;48.798;9.798;2022-07-11T06:13:22;20.60;99.60
7216;DHT22;3649;48.798;9.798;2022-07-11T06:15:49;20.60;99.70
7216;DHT22;3649;48.798;9.798;2022-07-11T06:18:16;20.60;99.90
7216;DHT22;3649;48.798;9.798;2022-07-11T06:20:43;20.60;99.90
7216;DHT22;3649;48.798;9.798;2022-07-11T06:23:10;20.50;99.90
7216;DHT22;3649;48.798;9.798;2022-07-11T06:25:36;20.50;99.90
7216;DHT22;3649;48.798;9.798;2022-07-11T06:28:04;20.60;99.90
7216;DHT22;3649;48.798;9.798;2022-07-11T06:30:31;20.60;99.90
7216;DHT22;3649;48.798;9.798;2022-07-11T06:32:59;20.60;99.90
7216;DHT22;3649;48.798;9.798;2022-07-11T06:35:26;20.60;99.90
7216;DHT22;3649;48.798;9.798;2022-07-11T06:37:53;20.60;99.90
7216;DHT22;3649;48.798;9.798;2022-07-11T06:40:20;20.70;99.90
7216;DHT22;3649;48.798;9.798;2022-07-11T06:42:46;20.80;99.90
7216;DHT22;3649;48.798;9.798;2022-07-11T06:45:13;20.90;99.90
7216;DHT22;3649;48.798;9.798;2022-07-11T06:47:41;20.80;99.90
7216;DHT22;3649;48.798;9.798;2022-07-11T06:50:08;20.80;99.90
7216;DHT22;3649;48.798;9.798;2022-07-11T06:52:35;20.80;99.90
7216;DHT22;3649;48.798;9.798;2022-07-11T06:55:03;20.90;99.90
7216;DHT22;3649;48.798;9.798;2022-07-11T06:57:30;21.00;99.90
7216;DHT22;3649;48.798;9.798;2022-07-11T06:59:57;21.00;99.90
7216;DHT22;3649;48.798;9.798;2022-07-11T07:02:23;21.00;99.90
7216;DHT22;3649;48.798;9.798;2022-07-11T07:04:54;21.00;99.90
7216;DHT22;3649;48.798;9.798;2022-07-11T07:07:21;21.20;99.90
7216;DHT22;3649;48.798;9.798;2022-07-11T07:09:48;21.20;99.90
7216;DHT22;3649;48.798;9.798;2022-07-11T07:12:15;21.30;99.80
7216;DHT22;3649;48.798;9.798;2022-07-11T07:14:43;21.40;99.80
7216;DHT22;3649;48.798;9.798;2022-07-11T07:17:10;21.40;99.80
7216;DHT22;3649;48.798;9.798;2022-07-11T07:19:37;21.50;99.90
7216;DHT22;3649;48.798;9.798;2022-07-11T07:22:04;21.60;99.80
7216;DHT22;3649;48.798;9.798;2022-07-11T07:24:32;21.60;99.70
7216;DHT22;3649;48.798;9.798;2022-07-11T07:26:59;21.60;99.80
7216;DHT22;3649;48.798;9.798;2022-07-11T07:29:26;21.60;99.90
7216;DHT22;3649;48.798;9.798;2022-07-11T07:31:53;21.60;99.80
7216;DHT22;3649;48.798;9.798;2022-07-11T07:34:21;21.60;99.80
7216;DHT22;3649;48.798;9.798;2022-07-11T07:36:48;21.70;99.70
7216;DHT22;3649;48.798;9.798;2022-07-11T07:39:15;21.70;99.70
7216;DHT22;3649;48.798;9.798;2022-07-11T07:41:41;21.80;99.60
7216;DHT22;3649;48.798;9.798;2022-07-11T07:44:09;21.80;99.60
7216;DHT22;3649;48.798;9.798;2022-07-11T07:46:36;21.80;99.70
7216;DHT22;3649;48.798;9.798;2022-07-11T07:49:03;21.80;99.80
7216;DHT22;3649;48.798;9.798;2022-07-11T07:51:30;21.90;99.80
7216;DHT22;3649;48.798;9.798;2022-07-11T07:53:57;21.90;99.80
7216;DHT22;3649;48.798;9.798;2022-07-11T07:56:24;22.00;99.70
7216;DHT22;3649;48.798;9.798;2022-07-11T07:58:51;22.10;99.70
7216;DHT22;3649;48.798;9.798;2022-07-11T08:01:18;22.20;99.70
7216;DHT22;3649;48.798;9.798;2022-07-11T08:04:05;22.20;99.60
7216;DHT22;3649;48.798;9.798;2022-07-11T08:06:33;22.20;99.60
7216;DHT22;3649;48.798;9.798;2022-07-11T08:09:02;22.30;99.50
7216;DHT22;3649;48.798;9.798;2022-07-11T08:11:29;22.40;99.50
7216;DHT22;3649;48.798;9.798;2022-07-11T08:13:59;22.40;99.40
7216;DHT22;3649;48.798;9.798;2022-07-11T08:16:26;22.40;99.40
7216;DHT22;3649;48.798;9.798;2022-07-11T08:18:57;22.50;99.30
7216;DHT22;3649;48.798;9.798;2022-07-11T08:21:24;22.60;99.20
7216;DHT22;3649;48.798;9.798;2022-07-11T08:23:52;22.60;99.20
7216;DHT22;3649;48.798;9.798;2022-07-11T08:26:18;22.50;99.30
7216;DHT22;3649;48.798;9.798;2022-07-11T08:28:45;22.50;99.30
7216;DHT22;3649;48.798;9.798;2022-07-11T08:31:12;22.60;99.30
7216;DHT22;3649;48.798;9.798;2022-07-11T08:33:39;22.60;99.30
7216;DHT22;3649;48.798;9.798;2022-07-11T08:36:06;22.70;99.20
7216;DHT22;3649;48.798;9.798;2022-07-11T08:38:33;22.80;99.10
7216;DHT22;3649;48.798;9.798;2022-07-11T08:41:00;22.90;99.00
7216;DHT22;3649;48.798;9.798;2022-07-11T08:43:30;23.00;98.90
7216;DHT22;3649;48.798;9.798;2022-07-11T08:45:57;23.10;98.80
7216;DHT22;3649;48.798;9.798;2022-07-11T08:48:26;23.20;98.70
7216;DHT22;3649;48.798;9.798;2022-07-11T08:50:55;23.20;98.60
7216;DHT22;3649;48.798;9.798;2022-07-11T08:53:22;23.40;98.60
7216;DHT22;3649;48.798;9.798;2022-07-11T08:55:49;23.50;98.40
7216;DHT22;3649;48.798;9.798;2022-07-11T08:58:17;23.50;98.40
7216;DHT22;3649;48.798;9.798;2022-07-11T09:00:47;23.60;98.20
7216;DHT22;3649;48.798;9.798;2022-07-11T09:03:15;23.50;98.20
7216;DHT22;3649;48.798;9.798;2022-07-11T09:05:43;23.60;98.40
7216;DHT22;3649;48.798;9.798;2022-07-11T09:08:10;23.50;98.20
7216;DHT22;3649;48.798;9.798;2022-07-11T09:10:39;23.50;98.20
7216;DHT22;3649;48.798;9.798;2022-07-11T09:13:09;23.40;98.30
7216;DHT22;3649;48.798;9.798;2022-07-11T09:15:46;23.50;98.30
7216;DHT22;3649;48.798;9.798;2022-07-11T09:21:07;23.40;98.70
7216;DHT22;3649;48.798;9.798;2022-07-11T09:23:54;23.50;98.40
7216;DHT22;3649;48.798;9.798;2022-07-11T09:26:42;23.50;98.20
7216;DHT22;3649;48.798;9.798;2022-07-11T09:29:12;23.50;98.20
7216;DHT22;3649;48.798;9.798;2022-07-11T09:31:42;23.50;98.20
7216;DHT22;3649;48.798;9.798;2022-07-11T09:34:11;23.50;98.00
7216;DHT22;3649;48.798;9.798;2022-07-11T09:36:45;23.50;98.10
7216;DHT22;3649;48.798;9.798;2022-07-11T09:39:14;23.40;98.20
7216;DHT22;3649;48.798;9.798;2022-07-11T09:41:43;23.30;98.30
7216;DHT22;3649;48.798;9.798;2022-07-11T09:44:21;23.30;98.40
7216;DHT22;3649;48.798;9.798;2022-07-11T09:46:50;23.30;98.50
7216;DHT22;3649;48.798;9.798;2022-07-11T09:49:29;23.30;98.60
7216;DHT22;3649;48.798;9.798;2022-07-11T09:52:07;23.30;98.70
7216;DHT22;3649;48.798;9.798;2022-07-11T09:54:37;23.30;98.70
7216;DHT22;3649;48.798;9.798;2022-07-11T09:57:18;23.30;98.60
7216;DHT22;3649;48.798;9.798;2022-07-11T09:59:54;23.30;98.60
7216;DHT22;3649;48.798;9.798;2022-07-11T10:02:22;23.40;98.30
7216;DHT22;3649;48.798;9.798;2022-07-11T10:04:50;23.40;98.30
7216;DHT22;3649;48.798;9.798;2022-07-11T10:07:16;23.30;98.40
7216;DHT22;3649;48.798;9.798;2022-07-11T10:09:43;23.30;98.80
7216;DHT22;3649;48.798;9.798;2022-07-11T10:12:10;23.30;98.50
7216;DHT22;3649;48.798;9.798;2022-07-11T10:14:38;23.30;98.60
7216;DHT22;3649;48.798;9.798;2022-07-11T10:20:01;23.20;98.80
7216;DHT22;3649;48.798;9.798;2022-07-11T10:22:40;23.20;98.80
7216;DHT22;3649;48.798;9.798;2022-07-11T10:30:54;23.20;99.00
7216;DHT22;3649;48.798;9.798;2022-07-11T10:33:28;23.10;99.00
7216;DHT22;3649;48.798;9.798;2022-07-11T10:35:56;23.20;98.90
7216;DHT22;3649;48.798;9.798;2022-07-11T10:38:23;23.20;98.80
7216;DHT22;3649;48.798;9.798;2022-07-11T10:40:56;23.20;99.20
7216;DHT22;3649;48.798;9.798;2022-07-11T10:43:34;24.50;99.50
7216;DHT22;3649;48.798;9.798;2022-07-11T10:46:04;23.20;98.90
7216;DHT22;3649;48.798;9.798;2022-07-11T10:52:06;23.40;98.90
7216;DHT22;3649;48.798;9.798;2022-07-11T10:54:52;23.30;98.90
7216;DHT22;3649;48.798;9.798;2022-07-11T11:00:07;23.30;99.10
7216;DHT22;3649;48.798;9.798;2022-07-11T11:03:04;23.40;99.10
7216;DHT22;3649;48.798;9.798;2022-07-11T11:05:48;23.40;99.10
7216;DHT22;3649;48.798;9.798;2022-07-11T11:11:03;23.50;99.10
7216;DHT22;3649;48.798;9.798;2022-07-11T11:13:32;23.50;99.20
7216;DHT22;3649;48.798;9.798;2022-07-11T11:16:23;23.80;99.40
7216;DHT22;3649;48.798;9.798;2022-07-11T11:18:51;23.50;99.20
7216;DHT22;3649;48.798;9.798;2022-07-11T11:21:20;23.50;99.00
7216;DHT22;3649;48.798;9.798;2022-07-11T11:26:49;23.60;98.80
7216;DHT22;3649;48.798;9.798;2022-07-11T11:29:22;23.60;98.70
7216;DHT22;3649;48.798;9.798;2022-07-11T11:31:52;23.60;98.50
7216;DHT22;3649;48.798;9.798;2022-07-11T11:34:19;23.60;98.60
7216;DHT22;3649;48.798;9.798;2022-07-11T11:36:58;23.70;98.50
7216;DHT22;3649;48.798;9.798;2022-07-11T11:42:00;23.50;98.70
7216;DHT22;3649;48.798;9.798;2022-07-11T11:44:27;23.50;98.90
7216;DHT22;3649;48.798;9.798;2022-07-11T11:46:54;23.60;98.80
7216;DHT22;3649;48.798;9.798;2022-07-11T11:49:21;23.60;98.90
7216;DHT22;3649;48.798;9.798;2022-07-11T11:51:48;23.60;98.90
7216;DHT22;3649;48.798;9.798;2022-07-11T11:54:25;23.60;98.90
7216;DHT22;3649;48.798;9.798;2022-07-11T11:56:52;23.70;98.40
7216;DHT22;3649;48.798;9.798;2022-07-11T11:59:29;23.80;98.60
7216;DHT22;3649;48.798;9.798;2022-07-11T12:01:57;23.80;98.60
7216;DHT22;3649;48.798;9.798;2022-07-11T12:04:24;23.80;98.40
7216;DHT22;3649;48.798;9.798;2022-07-11T12:06:50;23.80;98.40
7216;DHT22;3649;48.798;9.798;2022-07-11T12:09:22;23.90;98.60
7216;DHT22;3649;48.798;9.798;2022-07-11T12:12:09;23.90;98.30
7216;DHT22;3649;48.798;9.798;2022-07-11T12:14:55;23.90;98.40
7216;DHT22;3649;48.798;9.798;2022-07-11T12:17:26;24.00;98.00
7216;DHT22;3649;48.798;9.798;2022-07-11T12:19:56;24.10;97.70
7216;DHT22;3649;48.798;9.798;2022-07-11T12:22:23;24.10;97.90
7216;DHT22;3649;48.798;9.798;2022-07-11T12:24:52;24.00;98.00
7216;DHT22;3649;48.798;9.798;2022-07-11T12:27:24;23.90;98.00
7216;DHT22;3649;48.798;9.798;2022-07-11T12:29:51;23.90;97.80
7216;DHT22;3649;48.798;9.798;2022-07-11T12:32:20;24.00;97.80
7216;DHT22;3649;48.798;9.798;2022-07-11T12:34:49;24.00;97.90
7216;DHT22;3649;48.798;9.798;2022-07-11T12:37:24;24.10;98.00
7216;DHT22;3649;48.798;9.798;2022-07-11T12:39:55;24.10;97.60
7216;DHT22;3649;48.798;9.798;2022-07-11T12:42:32;24.10;97.90
7216;DHT22;3649;48.798;9.798;2022-07-11T12:47:29;24.10;98.00
7216;DHT22;3649;48.798;9.798;2022-07-11T12:49:56;24.10;97.80
7216;DHT22;3649;48.798;9.798;2022-07-11T12:52:23;24.10;98.00
7216;DHT22;3649;48.798;9.798;2022-07-11T12:54:59;24.00;98.00
7216;DHT22;3649;48.798;9.798;2022-07-11T12:57:26;24.00;98.00
7216;DHT22;3649;48.798;9.798;2022-07-11T12:59:53;24.00;97.70
7216;DHT22;3649;48.798;9.798;2022-07-11T13:02:25;24.00;97.70
7216;DHT22;3649;48.798;9.798;2022-07-11T13:04:54;24.10;97.90
7216;DHT22;3649;48.798;9.798;2022-07-11T13:07:28;24.10;97.90
7216;DHT22;3649;48.798;9.798;2022-07-11T13:10:17;24.10;97.80
7216;DHT22;3649;48.798;9.798;2022-07-11T13:12:45;24.00;97.90
7216;DHT22;3649;48.798;9.798;2022-07-11T13:15:14;24.00;98.10
7216;DHT22;3649;48.798;9.798;2022-07-11T13:17:47;24.10;98.20
7216;DHT22;3649;48.798;9.798;2022-07-11T13:20:19;24.10;98.10
7216;DHT22;3649;48.798;9.798;2022-07-11T13:22:48;24.10;98.10
7216;DHT22;3649;48.798;9.798;2022-07-11T13:25:18;24.10;98.20
7216;DHT22;3649;48.798;9.798;2022-07-11T13:27:46;24.00;98.10
7216;DHT22;3649;48.798;9.798;2022-07-11T13:30:16;24.00;98.20
7216;DHT22;3649;48.798;9.798;2022-07-11T13:32:44;24.00;98.20
7216;DHT22;3649;48.798;9.798;2022-07-11T13:35:13;24.00;98.30
7216;DHT22;3649;48.798;9.798;2022-07-11T13:37:45;24.00;98.40
7216;DHT22;3649;48.798;9.798;2022-07-11T13:40:23;24.00;98.40
7216;DHT22;3649;48.798;9.798;2022-07-11T13:42:50;24.10;98.30
7216;DHT22;3649;48.798;9.798;2022-07-11T13:45:18;24.10;98.30
7216;DHT22;3649;48.798;9.798;2022-07-11T13:47:46;24.10;98.20
7216;DHT22;3649;48.798;9.798;2022-07-11T13:50:16;24.10;98.30
7216;DHT22;3649;48.798;9.798;2022-07-11T13:52:44;24.10;98.40
7216;DHT22;3649;48.798;9.798;2022-07-11T13:55:20;24.10;98.50
7216;DHT22;3649;48.798;9.798;2022-07-11T13:57:47;24.10;98.50
7216;DHT22;3649;48.798;9.798;2022-07-11T14:00:20;24.10;98.70
7216;DHT22;3649;48.798;9.798;2022-07-11T14:02:47;24.10;98.90
7216;DHT22;3649;48.798;9.798;2022-07-11T14:05:15;24.10;98.70
7216;DHT22;3649;48.798;9.798;2022-07-11T14:07:42;24.20;98.70
7216;DHT22;3649;48.798;9.798;2022-07-11T14:10:09;24.10;98.60
7216;DHT22;3649;48.798;9.798;2022-07-11T14:12:36;24.10;98.60
7216;DHT22;3649;48.798;9.798;2022-07-11T14:15:04;24.10;98.40
7216;DHT22;3649;48.798;9.798;2022-07-11T14:17:31;24.20;98.50
7216;DHT22;3649;48.798;9.798;2022-07-11T14:19:58;24.20;98.60
7216;DHT22;3649;48.798;9.798;2022-07-11T14:22:26;24.20;98.50
7216;DHT22;3649;48.798;9.798;2022-07-11T14:24:52;24.30;98.70
7216;DHT22;3649;48.798;9.798;2022-07-11T14:27:20;24.30;98.60
7216;DHT22;3649;48.798;9.798;2022-07-11T14:29:47;24.30;98.60
7216;DHT22;3649;48.798;9.798;2022-07-11T14:32:15;24.20;98.50
7216;DHT22;3649;48.798;9.798;2022-07-11T14:34:43;24.30;98.60
7216;DHT22;3649;48.798;9.798;2022-07-11T14:37:10;24.20;98.50
7216;DHT22;3649;48.798;9.798;2022-07-11T14:39:37;24.20;98.60
7216;DHT22;3649;48.798;9.798;2022-07-11T14:42:04;24.30;98.60
7216;DHT22;3649;48.798;9.798;2022-07-11T14:44:51;24.30;98.50
7216;DHT22;3649;48.798;9.798;2022-07-11T14:47:18;24.30;98.50
7216;DHT22;3649;48.798;9.798;2022-07-11T14:49:45;24.40;98.20
7216;DHT22;3649;48.798;9.798;2022-07-11T14:52:13;24.40;98.10
7216;DHT22;3649;48.798;9.798;2022-07-11T14:54:41;24.40;98.00
7216;DHT22;3649;48.798;9.798;2022-07-11T14:57:08;24.40;98.10
7216;DHT22;3649;48.798;9.798;2022-07-11T14:59:35;24.40;98.10
7216;DHT22;3649;48.798;9.798;2022-07-11T15:02:02;24.40;98.20
7216;DHT22;3649;48.798;9.798;2022-07-11T15:04:29;24.40;98.20
7216;DHT22;3649;48.798;9.798;2022-07-11T15:06:56;24.40;98.30
7216;DHT22;3649;48.798;9.798;2022-07-11T15:09:42;24.40;98.10
7216;DHT22;3649;48.798;9.798;2022-07-11T15:12:27;24.40;98.20
7216;DHT22;3649;48.798;9.798;2022-07-11T15:14:57;24.40;98.00
7216;DHT22;3649;48.798;9.798;2022-07-11T15:17:24;24.50;98.20
7216;DHT22;3649;48.798;9.798;2022-07-11T15:19:51;24.40;98.00
7216;DHT22;3649;48.798;9.798;2022-07-11T15:22:18;24.40;98.40
7216;DHT22;3649;48.798;9.798;2022-07-11T15:24:47;24.40;98.00
7216;DHT22;3649;48.798;9.798;2022-07-11T15:27:14;24.40;98.10
7216;DHT22;3649;48.798;9.798;2022-07-11T15:29:41;24.40;98.10
7216;DHT22;3649;48.798;9.798;2022-07-11T15:32:08;24.40;98.20
7216;DHT22;3649;48.798;9.798;2022-07-11T15:34:35;24.40;98.40
7216;DHT22;3649;48.798;9.798;2022-07-11T15:37:02;24.40;98.30
7216;DHT22;3649;48.798;9.798;2022-07-11T15:39:29;24.40;98.30
7216;DHT22;3649;48.798;9.798;2022-07-11T15:41:56;24.40;98.30
7216;DHT22;3649;48.798;9.798;2022-07-11T15:44:23;24.40;98.20
7216;DHT22;3649;48.798;9.798;2022-07-11T15:46:50;24.40;98.30
7216;DHT22;3649;48.798;9.798;2022-07-11T15:49:17;24.40;98.30
7216;DHT22;3649;48.798;9.798;2022-07-11T15:51:44;24.40;98.20
7216;DHT22;3649;48.798;9.798;2022-07-11T15:54:11;24.40;98.30
7216;DHT22;3649;48.798;9.798;2022-07-11T15:56:38;24.40;98.30
7216;DHT22;3649;48.798;9.798;2022-07-11T15:59:05;24.40;98.50
7216;DHT22;3649;48.798;9.798;2022-07-11T16:01:32;24.40;98.50
7216;DHT22;3649;48.798;9.798;2022-07-11T16:04:01;24.40;98.30
7216;DHT22;3649;48.798;9.798;2022-07-11T16:06:30;24.40;98.30
7216;DHT22;3649;48.798;9.798;2022-07-11T16:08:57;24.40;98.30
7216;DHT22;3649;48.798;9.798;2022-07-11T16:11:24;24.40;98.30
7216;DHT22;3649;48.798;9.798;2022-07-11T16:13:52;24.40;98.30
7216;DHT22;3649;48.798;9.798;2022-07-11T16:16:22;24.40;98.30
7216;DHT22;3649;48.798;9.798;2022-07-11T16:18:53;24.40;98.40
7216;DHT22;3649;48.798;9.798;2022-07-11T16:21:22;24.40;98.50
7216;DHT22;3649;48.798;9.798;2022-07-11T16:23:50;24.40;98.50
7216;DHT22;3649;48.798;9.798;2022-07-11T16:26:18;24.40;98.60
7216;DHT22;3649;48.798;9.798;2022-07-11T16:28:45;24.30;98.70
7216;DHT22;3649;48.798;9.798;2022-07-11T16:31:12;24.30;98.30
7216;DHT22;3649;48.798;9.798;2022-07-11T16:33:39;24.30;98.60
7216;DHT22;3649;48.798;9.798;2022-07-11T16:36:07;24.30;98.40
7216;DHT22;3649;48.798;9.798;2022-07-11T16:38:35;24.40;98.50
7216;DHT22;3649;48.798;9.798;2022-07-11T16:41:02;24.30;98.60